English version
lugares datos climáticos artículos

datos de Mairena del Aljarafe, Sevilla, España
Año Mes Dia Mostrar

  Fecha       hora        Temp.ext.    Hum.ext.  Dir.Viento   Vel.Viento  Presion al NM   T.int. Prec.hoy 

   25-09-2021    18:15      26.9º(+2.7)     49%      270 (W)      4.8 km/h    1017.3 hpa     26.5º    0.0 mm
   25-09-2021    18:10      27.1º(+2.7)     49%      270 (W)      6.4 km/h    1017.3 hpa     26.5º    0.0 mm
   25-09-2021    18:05      27.3º(+2.8)     48%      270 (W)      8.0 km/h    1017.3 hpa     26.5º    0.0 mm
   25-09-2021    18:00      27.3º(+2.9)     48%      247(SW)      1.6 km/h    1017.4 hpa     26.5º    0.0 mm
   25-09-2021    17:55      27.3º(+2.9)     49%      270 (W)      4.8 km/h    1017.4 hpa     26.5º    0.0 mm
   25-09-2021    17:50      27.3º(+3.1)     48%      270 (W)      4.8 km/h    1017.5 hpa     26.5º    0.0 mm
   25-09-2021    17:45      27.2º(+3.0)     48%      270 (W)      3.2 km/h    1017.5 hpa     26.5º    0.0 mm
   25-09-2021    17:40      27.1º(+2.9)     48%      270 (W)      3.2 km/h    1017.5 hpa     26.5º    0.0 mm
   25-09-2021    17:35      26.8º(+2.6)     48%      247(SW)      4.8 km/h    1017.5 hpa     26.5º    0.0 mm
   25-09-2021    17:30      27.0º(+2.7)     47%      270 (W)      9.7 km/h    1017.4 hpa     26.5º    0.0 mm
   25-09-2021    17:25      27.0º(+2.7)     47%      247(SW)      4.8 km/h    1017.4 hpa     26.5º    0.0 mm
   25-09-2021    17:20      27.1º(+2.7)     48%      247(SW)      8.0 km/h    1017.4 hpa     26.5º    0.0 mm
   25-09-2021    17:15      27.1º(+2.7)     47%      270 (W)      6.4 km/h    1017.4 hpa     26.5º    0.0 mm
   25-09-2021    17:10      27.0º(+2.9)     47%      292 (W)      6.4 km/h    1017.4 hpa     26.5º    0.0 mm
   25-09-2021    17:05      27.2º(+3.2)     46%      247(SW)      8.0 km/h    1017.3 hpa     26.5º    0.0 mm
   25-09-2021    17:00      27.1º(+3.2)     46%      225(SW)      3.2 km/h    1017.3 hpa     26.5º    0.0 mm
   25-09-2021    16:55      26.8º(+3.0)     47%      292 (W)      3.2 km/h    1017.3 hpa     26.5º    0.0 mm
   25-09-2021    16:50      26.8º(+3.1)     46%      270 (W)      8.0 km/h    1017.3 hpa     26.5º    0.0 mm
   25-09-2021    16:45      26.6º(+2.8)     46%      247(SW)      1.6 km/h    1017.3 hpa     26.5º    0.0 mm
   25-09-2021    16:40      26.4º(+2.5)     45%      270 (W)      6.4 km/h    1017.3 hpa     26.5º    0.0 mm
   25-09-2021    16:35      26.7º(+2.6)     44%      270 (W)      8.0 km/h    1017.3 hpa     26.5º    0.0 mm
   25-09-2021    16:30      26.9º(+2.8)     45%      270 (W)      6.4 km/h    1017.4 hpa     26.5º    0.0 mm
   25-09-2021    16:25      26.8º(+2.7)     45%      247(SW)      8.0 km/h    1017.4 hpa     26.5º    0.0 mm
   25-09-2021    16:20      26.9º(+2.8)     44%      247(SW)      6.4 km/h    1017.5 hpa     26.5º    0.0 mm
   25-09-2021    16:15      26.8º(+2.8)     43%      247(SW)      6.4 km/h    1017.5 hpa     26.5º    0.0 mm
   25-09-2021    16:10      26.8º(+2.7)     44%      270 (W)      6.4 km/h    1017.5 hpa     26.5º    0.0 mm
   25-09-2021    16:05      26.6º(+2.5)     46%      270 (W)      4.8 km/h    1017.5 hpa     26.5º    0.0 mm
   25-09-2021    16:00      26.6º(+2.5)     45%      270 (W)      6.4 km/h    1017.6 hpa     26.5º    0.0 mm
   25-09-2021    15:55      26.8º(+2.7)     45%      270 (W)      6.4 km/h    1017.5 hpa     26.5º    0.0 mm
   25-09-2021    15:50      27.2º(+3.0)     44%      270 (W)      6.4 km/h    1017.6 hpa     26.4º    0.0 mm
   25-09-2021    15:45      26.9º(+2.8)     45%      247(SW)      3.2 km/h    1017.6 hpa     26.4º    0.0 mm
   25-09-2021    15:40      26.7º(+2.5)     46%      247(SW)      4.8 km/h    1017.7 hpa     26.3º    0.0 mm
   25-09-2021    15:35      26.6º(+2.4)     47%      270 (W)      8.0 km/h    1017.7 hpa     26.3º    0.0 mm
   25-09-2021    15:30      26.7º(+2.4)     49%      270 (W)      4.8 km/h    1017.8 hpa     26.3º    0.0 mm
   25-09-2021    15:25      26.7º(+2.4)     49%      270 (W)      3.2 km/h    1017.8 hpa     26.2º    0.0 mm
   25-09-2021    15:20      26.4º(+2.0)     50%      157(SE)      1.6 km/h    1017.8 hpa     26.2º    0.0 mm
   25-09-2021    15:15      26.1º(+1.5)     54%      180 (S)      1.6 km/h    1017.9 hpa     26.2º    0.0 mm
   25-09-2021    15:10      25.7º(+1.0)     56%      270 (W)      1.6 km/h    1018.0 hpa     26.2º    0.0 mm
   25-09-2021    15:05      25.6º(+1.1)     56%      270 (W)      6.4 km/h    1018.0 hpa     26.2º    0.0 mm
   25-09-2021    15:00      25.8º(+1.4)     56%      022 (N)      1.6 km/h    1018.1 hpa     26.2º    0.0 mm
   25-09-2021    14:55      25.6º(+1.2)     57%      337(NW)      1.6 km/h    1018.1 hpa     26.2º    0.0 mm
   25-09-2021    14:50      25.6º(+1.2)     57%      270 (W)      3.2 km/h    1018.1 hpa     26.1º    0.0 mm
   25-09-2021    14:45      25.4º(+1.0)     57%      202 (S)      1.6 km/h    1018.3 hpa     26.1º    0.0 mm
   25-09-2021    14:40      25.1º(+0.7)     60%         -         0.0 km/h    1018.4 hpa     26.1º    0.0 mm
   25-09-2021    14:35      24.7º(+0.3)     61%      270 (W)      3.2 km/h    1018.4 hpa     26.1º    0.0 mm
   25-09-2021    14:30      24.7º(+0.4)     61%      270 (W)      3.2 km/h    1018.5 hpa     26.0º    0.0 mm
   25-09-2021    14:25      24.8º(+0.5)     63%      247(SW)      1.6 km/h    1018.5 hpa     26.0º    0.0 mm
   25-09-2021    14:20      24.8º(+0.5)     63%      270 (W)      1.6 km/h    1018.6 hpa     26.0º    0.0 mm
   25-09-2021    14:15      24.8º(+0.6)     63%         -         0.0 km/h    1018.6 hpa     25.9º    0.0 mm
   25-09-2021    14:10      24.7º(+0.7)     64%      270 (W)      1.6 km/h    1018.6 hpa     25.9º    0.0 mm
   25-09-2021    14:05      24.9º(+1.0)     62%      270 (W)      3.2 km/h    1018.6 hpa     25.9º    0.0 mm
   25-09-2021    14:00      25.1º(+1.3)     63%      000 (N)      1.6 km/h    1018.6 hpa     25.8º    0.0 mm
   25-09-2021    13:55      24.8º(+0.9)     64%      202 (S)      1.6 km/h    1018.6 hpa     25.8º    0.0 mm
   25-09-2021    13:50      24.3º(+0.4)     65%      112 (E)      1.6 km/h    1018.6 hpa     25.8º    0.0 mm
   25-09-2021    13:45      24.3º(+0.5)     65%      112 (E)      1.6 km/h    1018.7 hpa     25.8º    0.0 mm
   25-09-2021    13:40      24.1º(+0.3)     65%      157(SE)      1.6 km/h    1018.7 hpa     25.7º    0.0 mm
   25-09-2021    13:35      23.7º(+0.0)     66%      202 (S)      1.6 km/h    1018.8 hpa     25.7º    0.0 mm
   25-09-2021    13:30      23.5º(-0.1)     68%      202 (S)      1.6 km/h    1018.7 hpa     25.7º    0.0 mm
   25-09-2021    13:25      23.2º(-0.3)     71%      225(SW)      1.6 km/h    1018.8 hpa     25.7º    0.0 mm
   25-09-2021    13:20      23.1º(-0.4)     71%      225(SW)      1.6 km/h    1018.9 hpa     25.7º    0.0 mm
   25-09-2021    13:15      23.1º(-0.3)     71%         -         0.0 km/h    1019.0 hpa     25.7º    0.0 mm
   25-09-2021    13:10      23.2º(+0.0)     70%      180 (S)      1.6 km/h    1018.9 hpa     25.6º    0.0 mm
   25-09-2021    13:05      23.2º(+0.3)     70%      225(SW)      1.6 km/h    1018.9 hpa     25.6º    0.0 mm
   25-09-2021    13:00      23.4º(+0.6)     70%      247(SW)      1.6 km/h    1018.9 hpa     25.6º    0.0 mm
   25-09-2021    12:55      23.4º(+0.7)     70%      247(SW)      1.6 km/h    1018.9 hpa     25.6º    0.0 mm
   25-09-2021    12:50      23.3º(+0.6)     71%         -         0.0 km/h    1018.9 hpa     25.6º    0.0 mm
   25-09-2021    12:45      23.2º(+0.7)     71%         -         0.0 km/h    1018.9 hpa     25.6º    0.0 mm
   25-09-2021    12:40      23.2º(+0.9)     71%      157(SE)      1.6 km/h    1018.8 hpa     25.6º    0.0 mm
   25-09-2021    12:35      23.1º(+0.9)     72%      090 (E)      1.6 km/h    1018.8 hpa     25.5º    0.0 mm
   25-09-2021    12:30      22.9º(+0.7)     72%      157(SE)      1.6 km/h    1018.8 hpa     25.5º    0.0 mm
   25-09-2021    12:25      22.8º(+0.9)     73%      157(SE)      1.6 km/h    1018.9 hpa     25.5º    0.0 mm
   25-09-2021    12:20      22.8º(+0.9)     73%      112 (E)      3.2 km/h    1018.8 hpa     25.5º    0.0 mm
   25-09-2021    12:15      23.1º(+1.2)     72%      112 (E)      3.2 km/h    1018.9 hpa     25.5º    0.0 mm
   25-09-2021    12:10      23.2º(+1.4)     73%      180 (S)      1.6 km/h    1018.9 hpa     25.4º    0.0 mm
   25-09-2021    12:05      22.8º(+1.1)     75%      157(SE)      1.6 km/h    1018.8 hpa     25.4º    0.0 mm
   25-09-2021    12:00      22.4º(+0.7)     75%      180 (S)      1.6 km/h    1018.8 hpa     25.4º    0.0 mm
   25-09-2021    11:55      22.2º(+0.5)     77%      090 (E)      3.2 km/h    1018.9 hpa     25.4º    0.0 mm
   25-09-2021    11:50      21.8º(+0.2)     78%      135(SE)      1.6 km/h    1018.9 hpa     25.3º    0.0 mm
   25-09-2021    11:45      21.5º(-0.2)     78%      225(SW)      1.6 km/h    1018.9 hpa     25.3º    0.0 mm
   25-09-2021    11:40      21.3º(-0.3)     79%      112 (E)      3.2 km/h    1018.8 hpa     25.3º    0.0 mm
   25-09-2021    11:35      21.3º(-0.3)     79%      157(SE)      1.6 km/h    1018.9 hpa     25.3º    0.0 mm
   25-09-2021    11:30      21.2º(-0.3)     79%      112 (E)      3.2 km/h    1018.7 hpa     25.3º    0.0 mm
   25-09-2021    11:25      20.9º(-0.6)     80%      090 (E)      4.8 km/h    1018.8 hpa     25.3º    0.0 mm
   25-09-2021    11:20      20.8º(-0.6)     80%      112 (E)      4.8 km/h    1018.5 hpa     25.4º    0.0 mm
   25-09-2021    11:15      20.7º(-0.7)     80%      112 (E)      6.4 km/h    1018.6 hpa     25.4º    0.0 mm
   25-09-2021    11:10      20.6º(-0.6)     80%      112 (E)      3.2 km/h    1018.5 hpa     25.4º    0.0 mm
   25-09-2021    11:05      20.5º(-0.6)     80%      112 (E)      4.8 km/h    1018.5 hpa     25.4º    0.0 mm
   25-09-2021    11:00      20.5º(-0.4)     81%      112 (E)      3.2 km/h    1018.6 hpa     25.3º    0.0 mm
   25-09-2021    10:55      20.3º(-0.5)     82%      112 (E)      4.8 km/h    1018.5 hpa     25.1º    0.0 mm
   25-09-2021    10:50      19.9º(-0.9)     83%      112 (E)      4.8 km/h    1018.4 hpa     24.9º    0.0 mm
   25-09-2021    10:45      19.7º(-1.0)     83%      112 (E)      3.2 km/h    1018.5 hpa     24.9º    0.0 mm
   25-09-2021    10:40      19.6º(-1.1)     83%      112 (E)      4.8 km/h    1018.4 hpa     24.8º    0.0 mm
   25-09-2021    10:35      19.5º(-1.1)     84%      135(SE)      3.2 km/h    1018.4 hpa     24.8º    0.0 mm
   25-09-2021    10:30      19.3º(-1.3)     84%      112 (E)      1.6 km/h    1018.3 hpa     24.8º    0.0 mm
   25-09-2021    10:25      19.2º(-1.3)     84%      112 (E)      4.8 km/h    1018.3 hpa     24.8º    0.0 mm
   25-09-2021    10:20      19.0º(-1.5)     86%      112 (E)      3.2 km/h    1018.3 hpa     24.8º    0.0 mm
   25-09-2021    10:15      18.8º(-1.7)     87%      135(SE)      1.6 km/h    1018.1 hpa     24.7º    0.0 mm
   25-09-2021    10:10      18.6º(-1.8)     87%      135(SE)      1.6 km/h    1018.1 hpa     24.7º    0.0 mm
   25-09-2021    10:05      18.4º(-2.0)     87%      135(SE)      1.6 km/h    1018.1 hpa     24.7º    0.0 mm
   25-09-2021    10:00      18.4º(-2.0)     88%      135(SE)      1.6 km/h    1017.9 hpa     24.7º    0.0 mm
   25-09-2021    09:55      18.3º(-2.1)     87%      135(SE)      1.6 km/h    1018.0 hpa     24.8º    0.0 mm
   25-09-2021    09:50      18.2º(-2.2)     88%      135(SE)      1.6 km/h    1018.0 hpa     24.8º    0.0 mm
   25-09-2021    09:45      18.2º(-2.2)     88%      135(SE)      3.2 km/h    1018.0 hpa     24.8º    0.0 mm
   25-09-2021    09:40      17.9º(-2.6)     89%      135(SE)      3.2 km/h    1018.0 hpa     24.8º    0.0 mm
   25-09-2021    09:35      17.8º(-2.7)     89%      135(SE)      3.2 km/h    1017.7 hpa     24.9º    0.0 mm
   25-09-2021    09:30      17.7º(-2.8)     89%      135(SE)      3.2 km/h    1017.7 hpa     24.9º    0.0 mm
   25-09-2021    09:25      17.6º(-2.9)     89%      135(SE)      4.8 km/h    1017.7 hpa     25.0º    0.0 mm
   25-09-2021    09:20      17.6º(----)     89%      135(SE)      6.4 km/h    1017.6 hpa     25.1º    0.0 mm
   25-09-2021    09:15      17.6º(----)     90%      135(SE)      6.4 km/h    1017.6 hpa     25.2º    0.0 mm
   25-09-2021    09:10      17.5º(----)     90%      135(SE)      4.8 km/h    1017.6 hpa     25.3º    0.0 mm
   25-09-2021    09:05      17.4º(----)     90%      135(SE)      4.8 km/h    1017.6 hpa     25.4º    0.0 mm
   25-09-2021    09:00      17.4º(----)     90%      135(SE)      1.6 km/h    1017.7 hpa     25.4º    0.0 mm
   25-09-2021    08:55      17.4º(----)     91%      135(SE)      1.6 km/h    1017.6 hpa     25.5º    0.0 mm
   25-09-2021    08:50      17.3º(----)     91%         -         0.0 km/h    1017.5 hpa     25.5º    0.0 mm
   25-09-2021    08:45      17.2º(----)     91%      135(SE)      1.6 km/h    1017.5 hpa     25.4º    0.0 mm
   25-09-2021    08:40        - º(----)      -%         -          -  km/h    1017.3 hpa     25.3º    0.0 mm
   25-09-2021    08:35        - º(----)      -%         -          -  km/h    1017.4 hpa     25.3º    0.0 mm
   25-09-2021    08:30        - º(----)      -%         -          -  km/h    1017.3 hpa     25.2º    0.0 mm
   25-09-2021    08:25        - º(----)      -%         -          -  km/h    1017.2 hpa     25.1º    0.0 mm
   25-09-2021    08:20        - º(----)      -%         -          -  km/h    1017.2 hpa     25.1º    0.0 mm
   25-09-2021    08:15        - º(----)      -%         -          -  km/h    1017.2 hpa     25.0º    0.0 mm
   25-09-2021    08:10        - º(----)      -%         -          -  km/h    1017.2 hpa     25.0º    0.0 mm
   25-09-2021    08:05        - º(----)      -%         -          -  km/h    1017.1 hpa     24.7º    0.0 mm
   25-09-2021    08:00        - º(----)      -%         -          -  km/h    1017.1 hpa     24.7º    0.0 mm
   25-09-2021    07:55        - º(----)      -%         -          -  km/h    1017.1 hpa     24.8º    0.0 mm
   25-09-2021    07:50      16.9º(----)     91%         -          -  km/h    1017.0 hpa     25.0º    0.0 mm
   25-09-2021    07:45      16.9º(----)     91%      157(SE)      1.6 km/h    1017.1 hpa     24.8º    0.0 mm
   25-09-2021    07:40      17.0º(----)     91%      157(SE)      1.6 km/h    1017.0 hpa     24.7º    0.0 mm
   25-09-2021    07:35      17.0º(-3.5)     91%      157(SE)      1.6 km/h    1016.8 hpa     24.8º    0.0 mm
   25-09-2021    07:30      17.0º(-3.5)     91%      157(SE)      1.6 km/h    1017.0 hpa     24.8º    0.0 mm
   25-09-2021    07:25      17.0º(-3.6)     91%      157(SE)      1.6 km/h    1016.9 hpa     24.9º    0.0 mm
   25-09-2021    07:20      17.0º(-3.6)     90%      157(SE)      1.6 km/h    1016.8 hpa     24.9º    0.0 mm
   25-09-2021    07:15      17.1º(-3.5)     90%      157(SE)      1.6 km/h    1016.8 hpa     24.9º    0.0 mm
   25-09-2021    07:10      17.1º(-3.5)     91%      157(SE)      1.6 km/h    1016.8 hpa     24.9º    0.0 mm
   25-09-2021    07:05      17.1º(-3.4)     90%      157(SE)      3.2 km/h    1016.7 hpa     24.9º    0.0 mm
   25-09-2021    07:00      17.0º(-3.6)     90%      157(SE)      1.6 km/h    1016.7 hpa     24.9º    0.0 mm
   25-09-2021    06:55      17.0º(-3.6)     91%      157(SE)      1.6 km/h    1016.7 hpa     24.9º    0.0 mm
   25-09-2021    06:50      17.0º(-3.6)     92%      157(SE)      1.6 km/h    1016.7 hpa     24.9º    0.0 mm
   25-09-2021    06:45      16.9º(-3.7)     90%      157(SE)      1.6 km/h    1016.7 hpa     24.9º    0.0 mm
   25-09-2021    06:40      16.9º(-3.7)     90%      157(SE)      1.6 km/h    1016.7 hpa     24.9º    0.0 mm
   25-09-2021    06:35      17.0º(-3.6)     90%         -         0.0 km/h    1016.7 hpa     25.0º    0.0 mm
   25-09-2021    06:30      17.1º(-3.5)     90%      157(SE)      1.6 km/h    1016.7 hpa     25.0º    0.0 mm
   25-09-2021    06:25      17.1º(-3.5)     90%      157(SE)      1.6 km/h    1016.7 hpa     25.0º    0.0 mm
   25-09-2021    06:20      17.1º(-3.5)     90%      157(SE)      3.2 km/h    1016.6 hpa     25.0º    0.0 mm
   25-09-2021    06:15      17.1º(-3.5)     90%      157(SE)      1.6 km/h    1016.6 hpa     25.0º    0.0 mm
   25-09-2021    06:10      17.1º(-3.5)     90%      157(SE)      3.2 km/h    1016.5 hpa     25.1º    0.0 mm
   25-09-2021    06:05      17.1º(-3.5)     90%      157(SE)      3.2 km/h    1016.6 hpa     25.1º    0.0 mm
   25-09-2021    06:00      17.2º(-3.3)     89%      157(SE)      1.6 km/h    1016.6 hpa     25.1º    0.0 mm
   25-09-2021    05:55      17.2º(-3.3)     89%      157(SE)      3.2 km/h    1016.5 hpa     25.2º    0.0 mm
   25-09-2021    05:50      17.3º(-3.2)     89%      157(SE)      4.8 km/h    1016.5 hpa     25.3º    0.0 mm
   25-09-2021    05:45      17.3º(-3.3)     89%      157(SE)      3.2 km/h    1016.5 hpa     25.4º    0.0 mm
   25-09-2021    05:40      17.3º(-3.4)     89%      157(SE)      1.6 km/h    1016.6 hpa     25.4º    0.0 mm
   25-09-2021    05:35      17.3º(-3.4)     89%      157(SE)      1.6 km/h    1016.6 hpa     25.5º    0.0 mm
   25-09-2021    05:30      17.3º(-3.4)     89%         -         0.0 km/h    1016.5 hpa     25.5º    0.0 mm
   25-09-2021    05:25      17.3º(-3.4)     89%         -         0.0 km/h    1016.6 hpa     25.4º    0.0 mm
   25-09-2021    05:20      17.3º(-3.4)     89%         -         0.0 km/h    1016.6 hpa     25.4º    0.0 mm
   25-09-2021    05:15      17.3º(-3.4)     89%      157(SE)      1.6 km/h    1016.6 hpa     25.4º    0.0 mm
   25-09-2021    05:10      17.3º(-3.4)     89%      157(SE)      1.6 km/h    1016.7 hpa     25.4º    0.0 mm
   25-09-2021    05:05      17.3º(-3.4)     89%      157(SE)      1.6 km/h    1016.7 hpa     25.3º    0.0 mm
   25-09-2021    05:00      17.3º(-3.5)     89%      157(SE)      1.6 km/h    1016.7 hpa     25.3º    0.0 mm
   25-09-2021    04:55      17.3º(-3.5)     89%      157(SE)      1.6 km/h    1016.7 hpa     25.3º    0.0 mm
   25-09-2021    04:50      17.3º(-3.5)     89%      157(SE)      1.6 km/h    1016.6 hpa     25.3º    0.0 mm
   25-09-2021    04:45      17.3º(-3.5)     89%      157(SE)      1.6 km/h    1016.6 hpa     25.4º    0.0 mm
   25-09-2021    04:40      17.4º(-3.4)     89%      157(SE)      3.2 km/h    1016.5 hpa     25.5º    0.0 mm
   25-09-2021    04:35      17.4º(-3.5)     89%      157(SE)      3.2 km/h    1016.6 hpa     25.6º    0.0 mm
   25-09-2021    04:30      17.4º(-3.5)     89%      157(SE)      1.6 km/h    1016.7 hpa     25.7º    0.0 mm
   25-09-2021    04:25      17.6º(-3.3)     89%      157(SE)      3.2 km/h    1016.8 hpa     25.7º    0.0 mm
   25-09-2021    04:20      17.6º(-3.3)     89%      157(SE)      3.2 km/h    1016.8 hpa     25.8º    0.0 mm
   25-09-2021    04:15      17.6º(-3.3)     89%      157(SE)      1.6 km/h    1016.7 hpa     25.8º    0.0 mm
   25-09-2021    04:10      17.6º(-3.3)     89%      157(SE)      1.6 km/h    1016.7 hpa     25.8º    0.0 mm
   25-09-2021    04:05      17.6º(-3.3)     89%      157(SE)      1.6 km/h    1016.7 hpa     25.8º    0.0 mm
   25-09-2021    04:00      17.5º(-3.4)     89%         -         0.0 km/h    1016.8 hpa     25.8º    0.0 mm
   25-09-2021    03:55      17.5º(-3.4)     89%      157(SE)      1.6 km/h    1016.8 hpa     25.9º    0.0 mm
   25-09-2021    03:50      17.5º(-3.4)     88%      157(SE)      1.6 km/h    1016.8 hpa     25.9º    0.0 mm
   25-09-2021    03:45      17.6º(-3.3)     88%      157(SE)      1.6 km/h    1016.8 hpa     25.9º    0.0 mm
   25-09-2021    03:40      17.8º(-3.2)     87%      157(SE)      1.6 km/h    1016.8 hpa     26.1º    0.0 mm
   25-09-2021    03:35      18.1º(-2.9)     88%      180 (S)      1.6 km/h    1016.7 hpa     26.2º    0.0 mm
   25-09-2021    03:30      18.1º(-2.9)     87%      180 (S)      1.6 km/h    1016.8 hpa     26.3º    0.0 mm
   25-09-2021    03:25      18.2º(-2.8)     87%         -         0.0 km/h    1016.8 hpa     26.4º    0.0 mm
   25-09-2021    03:20      18.2º(-2.8)     86%         -         0.0 km/h    1016.7 hpa     26.4º    0.0 mm
   25-09-2021    03:15      18.2º(-2.8)     86%      202 (S)      1.6 km/h    1016.7 hpa     26.4º    0.0 mm
   25-09-2021    03:10      18.3º(-2.8)     86%      202 (S)      1.6 km/h    1016.7 hpa     26.4º    0.0 mm
   25-09-2021    03:05      18.3º(-2.8)     86%      180 (S)      1.6 km/h    1016.7 hpa     26.4º    0.0 mm
   25-09-2021    03:00      18.3º(-2.9)     86%      180 (S)      1.6 km/h    1016.7 hpa     26.4º    0.0 mm
   25-09-2021    02:55      18.3º(-2.9)     86%      180 (S)      3.2 km/h    1016.7 hpa     26.4º    0.0 mm
   25-09-2021    02:50      18.3º(-2.9)     86%      180 (S)      1.6 km/h    1016.7 hpa     26.4º    0.0 mm
   25-09-2021    02:45      18.4º(-2.8)     86%      180 (S)      1.6 km/h    1016.7 hpa     26.4º    0.0 mm
   25-09-2021    02:40      18.4º(-2.8)     85%      180 (S)      1.6 km/h    1016.9 hpa     26.4º    0.0 mm
   25-09-2021    02:35      18.4º(-2.8)     85%      180 (S)      1.6 km/h    1016.7 hpa     26.4º    0.0 mm
   25-09-2021    02:30      18.4º(-2.9)     85%         -         0.0 km/h    1016.6 hpa     26.4º    0.0 mm
   25-09-2021    02:25      18.4º(-2.9)     85%         -         0.0 km/h    1016.7 hpa     26.4º    0.0 mm
   25-09-2021    02:20      18.5º(-2.8)     85%         -         0.0 km/h    1016.8 hpa     26.4º    0.0 mm
   25-09-2021    02:15      18.5º(-2.8)     85%         -         0.0 km/h    1016.8 hpa     26.5º    0.0 mm
   25-09-2021    02:10      18.6º(-2.8)     85%         -         0.0 km/h    1016.7 hpa     26.5º    0.0 mm
   25-09-2021    02:05      18.6º(-2.9)     85%         -         0.0 km/h    1016.7 hpa     26.5º    0.0 mm
   25-09-2021    02:00      18.6º(-3.0)     85%         -         0.0 km/h    1016.8 hpa     26.5º    0.0 mm
   25-09-2021    01:55      18.6º(----)     85%      180 (S)      1.6 km/h    1016.8 hpa     26.5º    0.0 mm
   25-09-2021    01:50      18.6º(----)     85%      180 (S)      1.6 km/h    1016.7 hpa     26.5º    0.0 mm
   25-09-2021    01:45      18.6º(----)     85%         -         0.0 km/h    1016.7 hpa     26.5º    0.0 mm
   25-09-2021    01:40      18.6º(----)     85%      180 (S)      1.6 km/h    1016.7 hpa     26.5º    0.0 mm
   25-09-2021    01:35      18.7º(----)     84%      180 (S)      1.6 km/h    1016.6 hpa     26.5º    0.0 mm
   25-09-2021    01:30      18.7º(----)     84%         -         0.0 km/h    1016.7 hpa     26.5º    0.0 mm
   25-09-2021    01:25      18.7º(----)     84%         -         0.0 km/h    1016.8 hpa     26.5º    0.0 mm
   25-09-2021    01:20      18.7º(----)     84%         -         0.0 km/h    1016.8 hpa     26.5º    0.0 mm
   25-09-2021    01:15      18.8º(----)     84%      180 (S)      1.6 km/h    1016.8 hpa     26.5º    0.0 mm
   25-09-2021    01:10      18.8º(----)     84%      180 (S)      1.6 km/h    1016.9 hpa     26.5º    0.0 mm
   25-09-2021    01:05      18.9º(----)     84%      180 (S)      1.6 km/h    1016.9 hpa     26.5º    0.0 mm
   25-09-2021    01:00      18.9º(----)     84%      180 (S)      1.6 km/h    1017.0 hpa     26.5º    0.0 mm
   25-09-2021    00:55      19.0º(----)     84%         -         0.0 km/h    1016.9 hpa     26.5º    0.0 mm
   25-09-2021    00:50      19.0º(----)     83%      180 (S)      1.6 km/h    1017.0 hpa     26.5º    0.0 mm
   25-09-2021    00:45      19.1º(----)     83%      180 (S)      1.6 km/h    1016.9 hpa     26.5º    0.0 mm
   25-09-2021    00:40      19.1º(----)     83%      180 (S)      1.6 km/h    1016.9 hpa     26.5º    0.0 mm
   25-09-2021    00:35      19.2º(----)     83%      180 (S)      1.6 km/h    1017.0 hpa     26.6º    0.0 mm
   25-09-2021    00:30      19.2º(----)     83%      180 (S)      3.2 km/h    1017.0 hpa     26.6º    0.0 mm
   25-09-2021    00:25      19.3º(----)     83%      180 (S)      1.6 km/h    1017.0 hpa     26.6º    0.0 mm
   25-09-2021    00:20      19.3º(----)     83%      180 (S)      3.2 km/h    1017.0 hpa     26.6º    0.0 mm
   25-09-2021    00:15      19.4º(----)     82%      180 (S)      1.6 km/h    1016.7 hpa     26.6º    0.0 mm
   25-09-2021    00:10      19.5º(----)     82%      225(SW)      1.6 km/h    1016.8 hpa     26.7º    0.0 mm
   25-09-2021    00:05      19.6º(----)     82%      247(SW)      1.6 km/h    1016.8 hpa     26.7º    0.0 mm
   25-09-2021    00:00      19.7º(----)     81%      247(SW)      1.6 km/h    1016.7 hpa     26.7º    0.0 mm